sensor_id;sensor_type;location;lat;lon;timestamp;P1;durP1;ratioP1;P2;durP2;ratioP2
74375;SDS011;62812;55.188;61.302;2023-08-06T00:01:03;11.10;;;5.88;;
74375;SDS011;62812;55.188;61.302;2023-08-06T00:03:29;10.13;;;5.78;;
74375;SDS011;62812;55.188;61.302;2023-08-06T00:06:23;11.40;;;6.32;;
74375;SDS011;62812;55.188;61.302;2023-08-06T00:08:51;9.20;;;5.70;;
74375;SDS011;62812;55.188;61.302;2023-08-06T00:11:18;10.32;;;6.13;;
74375;SDS011;62812;55.188;61.302;2023-08-06T00:13:44;11.07;;;6.45;;
74375;SDS011;62812;55.188;61.302;2023-08-06T00:16:11;11.05;;;6.03;;
74375;SDS011;62812;55.188;61.302;2023-08-06T00:18:38;9.38;;;6.05;;
74375;SDS011;62812;55.188;61.302;2023-08-06T00:21:05;10.15;;;6.30;;
74375;SDS011;62812;55.188;61.302;2023-08-06T00:23:33;10.85;;;6.70;;
74375;SDS011;62812;55.188;61.302;2023-08-06T00:26:00;13.05;;;7.22;;
74375;SDS011;62812;55.188;61.302;2023-08-06T00:28:26;15.07;;;7.10;;
74375;SDS011;62812;55.188;61.302;2023-08-06T00:30:53;11.48;;;7.22;;
74375;SDS011;62812;55.188;61.302;2023-08-06T00:33:25;11.32;;;6.78;;
74375;SDS011;62812;55.188;61.302;2023-08-06T00:35:52;10.73;;;6.43;;
74375;SDS011;62812;55.188;61.302;2023-08-06T00:38:18;12.70;;;7.15;;
74375;SDS011;62812;55.188;61.302;2023-08-06T00:40:47;10.35;;;6.18;;
74375;SDS011;62812;55.188;61.302;2023-08-06T00:43:13;11.77;;;6.70;;
74375;SDS011;62812;55.188;61.302;2023-08-06T00:45:40;11.48;;;7.50;;
74375;SDS011;62812;55.188;61.302;2023-08-06T00:48:06;11.65;;;7.30;;
74375;SDS011;62812;55.188;61.302;2023-08-06T00:50:33;12.50;;;7.68;;
74375;SDS011;62812;55.188;61.302;2023-08-06T00:53:00;13.55;;;8.02;;
74375;SDS011;62812;55.188;61.302;2023-08-06T00:55:28;12.52;;;7.68;;
74375;SDS011;62812;55.188;61.302;2023-08-06T00:57:56;11.75;;;7.38;;
74375;SDS011;62812;55.188;61.302;2023-08-06T01:00:23;10.48;;;6.75;;
74375;SDS011;62812;55.188;61.302;2023-08-06T01:02:50;11.00;;;7.20;;
74375;SDS011;62812;55.188;61.302;2023-08-06T01:05:17;10.40;;;6.95;;
74375;SDS011;62812;55.188;61.302;2023-08-06T01:07:45;11.50;;;7.45;;
74375;SDS011;62812;55.188;61.302;2023-08-06T01:10:27;11.90;;;7.20;;
74375;SDS011;62812;55.188;61.302;2023-08-06T01:13:08;11.93;;;7.25;;
74375;SDS011;62812;55.188;61.302;2023-08-06T01:15:43;14.15;;;7.03;;
74375;SDS011;62812;55.188;61.302;2023-08-06T01:18:13;13.82;;;6.80;;
74375;SDS011;62812;55.188;61.302;2023-08-06T01:20:42;13.07;;;7.30;;
74375;SDS011;62812;55.188;61.302;2023-08-06T01:23:09;11.68;;;6.88;;
74375;SDS011;62812;55.188;61.302;2023-08-06T01:25:39;14.50;;;6.95;;
74375;SDS011;62812;55.188;61.302;2023-08-06T01:28:15;12.88;;;7.05;;
74375;SDS011;62812;55.188;61.302;2023-08-06T01:30:48;10.07;;;6.57;;
74375;SDS011;62812;55.188;61.302;2023-08-06T01:33:21;12.10;;;6.70;;
74375;SDS011;62812;55.188;61.302;2023-08-06T01:35:52;11.55;;;6.93;;
74375;SDS011;62812;55.188;61.302;2023-08-06T01:38:20;11.65;;;7.25;;
74375;SDS011;62812;55.188;61.302;2023-08-06T01:40:47;11.57;;;7.07;;
74375;SDS011;62812;55.188;61.302;2023-08-06T01:43:13;11.88;;;7.65;;
74375;SDS011;62812;55.188;61.302;2023-08-06T01:45:40;12.32;;;7.22;;
74375;SDS011;62812;55.188;61.302;2023-08-06T01:48:06;11.57;;;7.10;;
74375;SDS011;62812;55.188;61.302;2023-08-06T01:50:33;10.75;;;6.88;;
74375;SDS011;62812;55.188;61.302;2023-08-06T01:53:01;11.68;;;6.78;;
74375;SDS011;62812;55.188;61.302;2023-08-06T01:55:29;12.27;;;6.25;;
74375;SDS011;62812;55.188;61.302;2023-08-06T01:57:56;10.95;;;7.25;;
74375;SDS011;62812;55.188;61.302;2023-08-06T02:00:23;11.07;;;7.28;;
74375;SDS011;62812;55.188;61.302;2023-08-06T02:02:52;10.75;;;6.80;;
74375;SDS011;62812;55.188;61.302;2023-08-06T02:07:45;9.60;;;6.80;;
74375;SDS011;62812;55.188;61.302;2023-08-06T02:10:13;10.48;;;7.00;;
74375;SDS011;62812;55.188;61.302;2023-08-06T02:12:39;13.38;;;7.68;;
74375;SDS011;62812;55.188;61.302;2023-08-06T02:15:06;11.32;;;7.15;;
74375;SDS011;62812;55.188;61.302;2023-08-06T02:17:33;9.10;;;6.65;;
74375;SDS011;62812;55.188;61.302;2023-08-06T02:20:00;11.77;;;6.40;;
74375;SDS011;62812;55.188;61.302;2023-08-06T02:22:27;8.80;;;6.03;;
74375;SDS011;62812;55.188;61.302;2023-08-06T02:24:55;9.82;;;6.18;;
74375;SDS011;62812;55.188;61.302;2023-08-06T02:27:23;10.10;;;6.75;;
74375;SDS011;62812;55.188;61.302;2023-08-06T02:29:49;9.43;;;6.40;;
74375;SDS011;62812;55.188;61.302;2023-08-06T02:32:16;8.07;;;6.07;;
74375;SDS011;62812;55.188;61.302;2023-08-06T02:34:48;8.80;;;5.80;;
74375;SDS011;62812;55.188;61.302;2023-08-06T02:37:15;8.27;;;5.97;;
74375;SDS011;62812;55.188;61.302;2023-08-06T02:39:41;10.93;;;6.40;;
74375;SDS011;62812;55.188;61.302;2023-08-06T02:42:08;9.65;;;6.03;;
74375;SDS011;62812;55.188;61.302;2023-08-06T02:44:36;9.88;;;6.43;;
74375;SDS011;62812;55.188;61.302;2023-08-06T02:47:03;10.57;;;5.82;;
74375;SDS011;62812;55.188;61.302;2023-08-06T02:49:30;11.18;;;6.30;;
74375;SDS011;62812;55.188;61.302;2023-08-06T02:51:57;9.40;;;6.20;;
74375;SDS011;62812;55.188;61.302;2023-08-06T02:54:24;9.27;;;6.00;;
74375;SDS011;62812;55.188;61.302;2023-08-06T02:56:51;10.00;;;5.80;;
74375;SDS011;62812;55.188;61.302;2023-08-06T02:59:17;9.18;;;6.10;;
74375;SDS011;62812;55.188;61.302;2023-08-06T03:01:46;10.32;;;6.03;;
74375;SDS011;62812;55.188;61.302;2023-08-06T03:04:12;9.52;;;6.13;;
74375;SDS011;62812;55.188;61.302;2023-08-06T03:06:39;9.18;;;5.78;;
74375;SDS011;62812;55.188;61.302;2023-08-06T03:09:05;7.70;;;5.57;;
74375;SDS011;62812;55.188;61.302;2023-08-06T03:11:32;10.38;;;6.45;;
74375;SDS011;62812;55.188;61.302;2023-08-06T03:13:58;10.20;;;6.22;;
74375;SDS011;62812;55.188;61.302;2023-08-06T03:16:25;9.80;;;5.93;;
74375;SDS011;62812;55.188;61.302;2023-08-06T03:18:53;11.35;;;6.25;;
74375;SDS011;62812;55.188;61.302;2023-08-06T03:21:19;10.00;;;6.20;;
74375;SDS011;62812;55.188;61.302;2023-08-06T03:23:46;8.63;;;6.40;;
74375;SDS011;62812;55.188;61.302;2023-08-06T03:26:14;8.00;;;5.43;;
74375;SDS011;62812;55.188;61.302;2023-08-06T03:28:40;9.90;;;6.05;;
74375;SDS011;62812;55.188;61.302;2023-08-06T03:31:07;9.50;;;5.93;;
74375;SDS011;62812;55.188;61.302;2023-08-06T03:33:39;8.10;;;5.78;;
74375;SDS011;62812;55.188;61.302;2023-08-06T03:36:07;9.35;;;6.18;;
74375;SDS011;62812;55.188;61.302;2023-08-06T03:38:34;7.95;;;6.00;;
74375;SDS011;62812;55.188;61.302;2023-08-06T03:41:01;8.50;;;6.05;;
74375;SDS011;62812;55.188;61.302;2023-08-06T03:43:28;9.07;;;6.38;;
74375;SDS011;62812;55.188;61.302;2023-08-06T03:45:56;8.57;;;6.22;;
74375;SDS011;62812;55.188;61.302;2023-08-06T03:48:26;9.30;;;6.10;;
74375;SDS011;62812;55.188;61.302;2023-08-06T03:50:53;9.70;;;6.05;;
74375;SDS011;62812;55.188;61.302;2023-08-06T03:53:21;8.70;;;6.55;;
74375;SDS011;62812;55.188;61.302;2023-08-06T03:55:47;9.65;;;6.40;;
74375;SDS011;62812;55.188;61.302;2023-08-06T03:58:14;9.07;;;5.78;;
74375;SDS011;62812;55.188;61.302;2023-08-06T04:00:40;9.18;;;6.43;;
74375;SDS011;62812;55.188;61.302;2023-08-06T04:03:07;8.60;;;6.00;;
74375;SDS011;62812;55.188;61.302;2023-08-06T04:05:34;9.15;;;5.75;;
74375;SDS011;62812;55.188;61.302;2023-08-06T04:08:08;7.63;;;5.72;;
74375;SDS011;62812;55.188;61.302;2023-08-06T04:10:36;10.10;;;6.03;;
74375;SDS011;62812;55.188;61.302;2023-08-06T04:13:02;9.73;;;6.20;;
74375;SDS011;62812;55.188;61.302;2023-08-06T04:15:34;9.27;;;5.70;;
74375;SDS011;62812;55.188;61.302;2023-08-06T04:18:00;9.10;;;6.30;;
74375;SDS011;62812;55.188;61.302;2023-08-06T04:20:27;9.63;;;6.07;;
74375;SDS011;62812;55.188;61.302;2023-08-06T04:22:54;8.32;;;6.18;;
74375;SDS011;62812;55.188;61.302;2023-08-06T04:25:21;9.85;;;6.32;;
74375;SDS011;62812;55.188;61.302;2023-08-06T04:27:53;9.50;;;6.20;;
74375;SDS011;62812;55.188;61.302;2023-08-06T04:30:19;10.02;;;6.47;;
74375;SDS011;62812;55.188;61.302;2023-08-06T04:32:49;9.95;;;6.45;;
74375;SDS011;62812;55.188;61.302;2023-08-06T04:35:22;9.80;;;6.40;;
74375;SDS011;62812;55.188;61.302;2023-08-06T04:37:48;13.18;;;6.88;;
74375;SDS011;62812;55.188;61.302;2023-08-06T04:40:15;9.23;;;7.35;;
74375;SDS011;62812;55.188;61.302;2023-08-06T04:42:42;9.93;;;5.93;;
74375;SDS011;62812;55.188;61.302;2023-08-06T04:45:11;10.52;;;6.63;;
74375;SDS011;62812;55.188;61.302;2023-08-06T04:47:37;12.32;;;6.63;;
74375;SDS011;62812;55.188;61.302;2023-08-06T04:50:05;9.48;;;5.82;;
74375;SDS011;62812;55.188;61.302;2023-08-06T04:52:32;8.13;;;6.35;;
74375;SDS011;62812;55.188;61.302;2023-08-06T04:54:58;9.13;;;6.07;;
74375;SDS011;62812;55.188;61.302;2023-08-06T04:57:25;9.82;;;6.30;;
74375;SDS011;62812;55.188;61.302;2023-08-06T04:59:52;9.43;;;5.50;;
74375;SDS011;62812;55.188;61.302;2023-08-06T05:02:20;9.05;;;5.82;;
74375;SDS011;62812;55.188;61.302;2023-08-06T05:04:47;10.25;;;6.10;;
74375;SDS011;62812;55.188;61.302;2023-08-06T05:07:14;8.77;;;5.95;;
74375;SDS011;62812;55.188;61.302;2023-08-06T05:09:40;8.10;;;6.00;;
74375;SDS011;62812;55.188;61.302;2023-08-06T05:12:07;7.82;;;5.47;;
74375;SDS011;62812;55.188;61.302;2023-08-06T05:14:34;8.77;;;5.10;;
74375;SDS011;62812;55.188;61.302;2023-08-06T05:17:00;9.82;;;6.10;;
74375;SDS011;62812;55.188;61.302;2023-08-06T05:19:30;11.55;;;6.20;;
74375;SDS011;62812;55.188;61.302;2023-08-06T05:21:57;7.40;;;5.50;;
74375;SDS011;62812;55.188;61.302;2023-08-06T05:24:23;11.13;;;5.95;;
74375;SDS011;62812;55.188;61.302;2023-08-06T05:26:50;9.10;;;5.90;;
74375;SDS011;62812;55.188;61.302;2023-08-06T05:29:17;10.73;;;6.22;;
74375;SDS011;62812;55.188;61.302;2023-08-06T05:31:44;8.50;;;5.75;;
74375;SDS011;62812;55.188;61.302;2023-08-06T05:34:15;10.10;;;5.88;;
74375;SDS011;62812;55.188;61.302;2023-08-06T05:36:44;12.75;;;6.75;;
74375;SDS011;62812;55.188;61.302;2023-08-06T05:39:13;9.75;;;6.38;;
74375;SDS011;62812;55.188;61.302;2023-08-06T05:41:40;8.98;;;6.00;;
74375;SDS011;62812;55.188;61.302;2023-08-06T05:44:06;12.25;;;6.25;;
74375;SDS011;62812;55.188;61.302;2023-08-06T05:46:33;8.75;;;5.72;;
74375;SDS011;62812;55.188;61.302;2023-08-06T05:49:02;9.27;;;6.25;;
74375;SDS011;62812;55.188;61.302;2023-08-06T05:51:29;13.15;;;6.70;;
74375;SDS011;62812;55.188;61.302;2023-08-06T05:53:57;10.93;;;6.45;;
74375;SDS011;62812;55.188;61.302;2023-08-06T05:56:23;10.45;;;6.78;;
74375;SDS011;62812;55.188;61.302;2023-08-06T05:58:50;13.98;;;8.10;;
74375;SDS011;62812;55.188;61.302;2023-08-06T06:01:19;9.38;;;6.90;;
74375;SDS011;62812;55.188;61.302;2023-08-06T06:04:07;11.50;;;7.07;;
74375;SDS011;62812;55.188;61.302;2023-08-06T06:06:42;11.82;;;7.28;;
74375;SDS011;62812;55.188;61.302;2023-08-06T06:09:10;14.23;;;7.10;;
74375;SDS011;62812;55.188;61.302;2023-08-06T06:11:37;13.32;;;6.93;;
74375;SDS011;62812;55.188;61.302;2023-08-06T06:14:03;22.08;;;7.53;;
74375;SDS011;62812;55.188;61.302;2023-08-06T06:16:30;13.45;;;6.95;;
74375;SDS011;62812;55.188;61.302;2023-08-06T06:18:57;10.88;;;6.85;;
74375;SDS011;62812;55.188;61.302;2023-08-06T06:21:23;11.65;;;7.72;;
74375;SDS011;62812;55.188;61.302;2023-08-06T06:23:50;9.85;;;6.28;;
74375;SDS011;62812;55.188;61.302;2023-08-06T06:26:21;9.30;;;6.88;;
74375;SDS011;62812;55.188;61.302;2023-08-06T06:28:47;12.27;;;8.00;;
74375;SDS011;62812;55.188;61.302;2023-08-06T06:31:14;11.18;;;7.30;;
74375;SDS011;62812;55.188;61.302;2023-08-06T06:33:46;13.50;;;6.88;;
74375;SDS011;62812;55.188;61.302;2023-08-06T06:36:13;15.00;;;6.50;;
74375;SDS011;62812;55.188;61.302;2023-08-06T06:38:39;11.38;;;7.25;;
74375;SDS011;62812;55.188;61.302;2023-08-06T06:41:06;13.23;;;7.88;;
74375;SDS011;62812;55.188;61.302;2023-08-06T06:43:34;11.23;;;7.32;;
74375;SDS011;62812;55.188;61.302;2023-08-06T06:46:01;11.23;;;7.88;;
74375;SDS011;62812;55.188;61.302;2023-08-06T06:48:28;14.73;;;7.60;;
74375;SDS011;62812;55.188;61.302;2023-08-06T06:50:55;12.02;;;8.02;;
74375;SDS011;62812;55.188;61.302;2023-08-06T06:53:22;11.77;;;7.63;;
74375;SDS011;62812;55.188;61.302;2023-08-06T06:55:54;11.25;;;7.78;;
74375;SDS011;62812;55.188;61.302;2023-08-06T06:58:21;11.38;;;7.38;;
74375;SDS011;62812;55.188;61.302;2023-08-06T07:00:53;10.43;;;7.22;;
74375;SDS011;62812;55.188;61.302;2023-08-06T07:03:21;12.38;;;7.32;;
74375;SDS011;62812;55.188;61.302;2023-08-06T07:05:48;12.07;;;6.97;;
74375;SDS011;62812;55.188;61.302;2023-08-06T07:08:15;13.63;;;7.35;;
74375;SDS011;62812;55.188;61.302;2023-08-06T07:10:42;10.73;;;6.78;;
74375;SDS011;62812;55.188;61.302;2023-08-06T07:13:10;10.25;;;6.00;;
74375;SDS011;62812;55.188;61.302;2023-08-06T07:15:37;10.35;;;5.60;;
74375;SDS011;62812;55.188;61.302;2023-08-06T07:18:05;8.40;;;4.47;;
74375;SDS011;62812;55.188;61.302;2023-08-06T07:20:31;8.93;;;5.18;;
74375;SDS011;62812;55.188;61.302;2023-08-06T07:23:00;6.90;;;4.15;;
74375;SDS011;62812;55.188;61.302;2023-08-06T07:25:27;7.15;;;4.60;;
74375;SDS011;62812;55.188;61.302;2023-08-06T07:27:54;6.75;;;4.05;;
74375;SDS011;62812;55.188;61.302;2023-08-06T07:30:22;6.93;;;3.72;;
74375;SDS011;62812;55.188;61.302;2023-08-06T07:32:49;7.05;;;3.60;;
74375;SDS011;62812;55.188;61.302;2023-08-06T07:35:30;8.73;;;4.30;;
74375;SDS011;62812;55.188;61.302;2023-08-06T07:37:56;7.57;;;4.40;;
74375;SDS011;62812;55.188;61.302;2023-08-06T07:40:24;8.07;;;5.00;;
74375;SDS011;62812;55.188;61.302;2023-08-06T07:42:51;9.23;;;6.20;;
74375;SDS011;62812;55.188;61.302;2023-08-06T07:45:18;12.43;;;7.30;;
74375;SDS011;62812;55.188;61.302;2023-08-06T07:47:45;12.02;;;5.53;;
74375;SDS011;62812;55.188;61.302;2023-08-06T07:50:12;10.32;;;6.03;;
74375;SDS011;62812;55.188;61.302;2023-08-06T07:52:41;8.73;;;4.13;;
74375;SDS011;62812;55.188;61.302;2023-08-06T07:55:08;14.32;;;4.65;;
74375;SDS011;62812;55.188;61.302;2023-08-06T07:57:35;8.48;;;4.13;;
74375;SDS011;62812;55.188;61.302;2023-08-06T08:00:04;10.50;;;4.70;;
74375;SDS011;62812;55.188;61.302;2023-08-06T08:02:32;15.40;;;4.60;;
74375;SDS011;62812;55.188;61.302;2023-08-06T08:04:59;9.68;;;3.50;;
74375;SDS011;62812;55.188;61.302;2023-08-06T08:07:26;9.60;;;3.20;;
74375;SDS011;62812;55.188;61.302;2023-08-06T08:09:56;5.65;;;2.97;;
74375;SDS011;62812;55.188;61.302;2023-08-06T08:12:27;5.05;;;2.63;;
74375;SDS011;62812;55.188;61.302;2023-08-06T08:14:55;5.72;;;2.58;;
74375;SDS011;62812;55.188;61.302;2023-08-06T08:17:24;6.57;;;2.47;;
74375;SDS011;62812;55.188;61.302;2023-08-06T08:19:50;7.20;;;2.20;;
74375;SDS011;62812;55.188;61.302;2023-08-06T08:22:17;4.82;;;2.03;;
74375;SDS011;62812;55.188;61.302;2023-08-06T08:24:44;6.05;;;2.47;;
74375;SDS011;62812;55.188;61.302;2023-08-06T08:27:16;5.70;;;2.67;;
74375;SDS011;62812;55.188;61.302;2023-08-06T08:29:45;4.88;;;2.20;;
74375;SDS011;62812;55.188;61.302;2023-08-06T08:32:12;6.78;;;2.22;;
74375;SDS011;62812;55.188;61.302;2023-08-06T08:34:46;5.03;;;2.20;;
74375;SDS011;62812;55.188;61.302;2023-08-06T08:37:14;5.32;;;2.20;;
74375;SDS011;62812;55.188;61.302;2023-08-06T08:39:43;4.95;;;2.30;;
74375;SDS011;62812;55.188;61.302;2023-08-06T08:42:10;4.10;;;1.88;;
74375;SDS011;62812;55.188;61.302;2023-08-06T08:44:41;4.93;;;2.28;;
74375;SDS011;62812;55.188;61.302;2023-08-06T08:47:10;5.63;;;2.08;;
74375;SDS011;62812;55.188;61.302;2023-08-06T08:49:38;4.43;;;2.20;;
74375;SDS011;62812;55.188;61.302;2023-08-06T08:52:09;5.97;;;2.65;;
74375;SDS011;62812;55.188;61.302;2023-08-06T08:54:38;5.72;;;2.45;;
74375;SDS011;62812;55.188;61.302;2023-08-06T08:57:08;4.78;;;2.25;;
74375;SDS011;62812;55.188;61.302;2023-08-06T08:59:37;6.57;;;1.90;;
74375;SDS011;62812;55.188;61.302;2023-08-06T09:02:04;3.97;;;1.95;;
74375;SDS011;62812;55.188;61.302;2023-08-06T09:04:34;7.13;;;3.03;;
74375;SDS011;62812;55.188;61.302;2023-08-06T09:07:02;8.07;;;3.70;;
74375;SDS011;62812;55.188;61.302;2023-08-06T09:09:31;6.70;;;2.85;;
74375;SDS011;62812;55.188;61.302;2023-08-06T09:12:10;6.57;;;3.28;;
74375;SDS011;62812;55.188;61.302;2023-08-06T09:14:47;8.80;;;4.00;;
74375;SDS011;62812;55.188;61.302;2023-08-06T09:17:16;8.27;;;3.75;;
74375;SDS011;62812;55.188;61.302;2023-08-06T09:19:46;8.00;;;3.60;;
74375;SDS011;62812;55.188;61.302;2023-08-06T09:22:14;6.97;;;2.88;;
74375;SDS011;62812;55.188;61.302;2023-08-06T09:24:41;6.22;;;3.00;;
74375;SDS011;62812;55.188;61.302;2023-08-06T09:27:10;5.53;;;2.65;;
74375;SDS011;62812;55.188;61.302;2023-08-06T09:29:43;7.15;;;2.78;;
74375;SDS011;62812;55.188;61.302;2023-08-06T09:32:13;6.13;;;3.42;;
74375;SDS011;62812;55.188;61.302;2023-08-06T09:34:48;8.18;;;3.85;;
74375;SDS011;62812;55.188;61.302;2023-08-06T09:37:27;8.27;;;4.13;;
74375;SDS011;62812;55.188;61.302;2023-08-06T09:40:19;7.88;;;4.47;;
74375;SDS011;62812;55.188;61.302;2023-08-06T09:42:52;10.57;;;6.18;;
74375;SDS011;62812;55.188;61.302;2023-08-06T09:45:20;10.07;;;4.60;;
74375;SDS011;62812;55.188;61.302;2023-08-06T09:47:52;6.75;;;3.88;;
74375;SDS011;62812;55.188;61.302;2023-08-06T09:52:57;7.88;;;3.40;;
74375;SDS011;62812;55.188;61.302;2023-08-06T09:55:24;7.35;;;3.80;;
74375;SDS011;62812;55.188;61.302;2023-08-06T09:57:52;7.95;;;3.80;;
74375;SDS011;62812;55.188;61.302;2023-08-06T10:00:19;8.13;;;3.40;;
74375;SDS011;62812;55.188;61.302;2023-08-06T10:02:48;6.45;;;3.40;;
74375;SDS011;62812;55.188;61.302;2023-08-06T10:05:19;8.30;;;2.85;;
74375;SDS011;62812;55.188;61.302;2023-08-06T10:07:49;5.72;;;2.28;;
74375;SDS011;62812;55.188;61.302;2023-08-06T10:11:03;5.15;;;2.40;;
74375;SDS011;62812;55.188;61.302;2023-08-06T10:13:31;7.97;;;2.50;;
74375;SDS011;62812;55.188;61.302;2023-08-06T10:16:00;5.40;;;2.35;;
74375;SDS011;62812;55.188;61.302;2023-08-06T10:18:28;4.53;;;2.00;;
74375;SDS011;62812;55.188;61.302;2023-08-06T10:20:57;5.38;;;2.03;;
74375;SDS011;62812;55.188;61.302;2023-08-06T10:23:32;4.32;;;1.60;;
74375;SDS011;62812;55.188;61.302;2023-08-06T10:28:33;4.97;;;2.25;;
74375;SDS011;62812;55.188;61.302;2023-08-06T10:31:03;5.35;;;2.22;;
74375;SDS011;62812;55.188;61.302;2023-08-06T10:33:41;4.45;;;2.08;;
74375;SDS011;62812;55.188;61.302;2023-08-06T10:36:17;6.00;;;2.30;;
74375;SDS011;62812;55.188;61.302;2023-08-06T10:38:46;4.70;;;1.95;;
74375;SDS011;62812;55.188;61.302;2023-08-06T10:41:22;4.95;;;1.90;;
74375;SDS011;62812;55.188;61.302;2023-08-06T10:43:53;4.85;;;2.20;;
74375;SDS011;62812;55.188;61.302;2023-08-06T10:46:35;7.45;;;2.30;;
74375;SDS011;62812;55.188;61.302;2023-08-06T10:49:07;6.47;;;2.50;;
74375;SDS011;62812;55.188;61.302;2023-08-06T10:51:35;4.78;;;2.13;;
74375;SDS011;62812;55.188;61.302;2023-08-06T10:54:02;6.57;;;2.17;;
74375;SDS011;62812;55.188;61.302;2023-08-06T10:56:30;4.53;;;1.80;;
74375;SDS011;62812;55.188;61.302;2023-08-06T10:59:09;5.40;;;2.25;;
74375;SDS011;62812;55.188;61.302;2023-08-06T11:01:37;5.32;;;1.95;;
74375;SDS011;62812;55.188;61.302;2023-08-06T11:04:04;4.22;;;1.70;;
74375;SDS011;62812;55.188;61.302;2023-08-06T11:06:31;4.43;;;1.80;;
74375;SDS011;62812;55.188;61.302;2023-08-06T11:09:01;4.80;;;1.90;;
74375;SDS011;62812;55.188;61.302;2023-08-06T11:11:27;3.72;;;1.50;;
74375;SDS011;62812;55.188;61.302;2023-08-06T11:13:55;5.80;;;1.70;;
74375;SDS011;62812;55.188;61.302;2023-08-06T11:16:22;4.72;;;1.90;;
74375;SDS011;62812;55.188;61.302;2023-08-06T11:18:52;3.33;;;1.58;;
74375;SDS011;62812;55.188;61.302;2023-08-06T11:21:20;3.70;;;1.20;;
74375;SDS011;62812;55.188;61.302;2023-08-06T11:23:48;3.20;;;1.40;;
74375;SDS011;62812;55.188;61.302;2023-08-06T11:26:19;3.55;;;1.20;;
74375;SDS011;62812;55.188;61.302;2023-08-06T11:28:46;4.18;;;1.50;;
74375;SDS011;62812;55.188;61.302;2023-08-06T11:31:18;4.82;;;1.40;;
74375;SDS011;62812;55.188;61.302;2023-08-06T11:33:46;2.80;;;1.10;;
74375;SDS011;62812;55.188;61.302;2023-08-06T11:36:14;4.05;;;1.23;;
74375;SDS011;62812;55.188;61.302;2023-08-06T11:38:42;2.95;;;1.15;;
74375;SDS011;62812;55.188;61.302;2023-08-06T11:41:09;3.85;;;1.20;;
74375;SDS011;62812;55.188;61.302;2023-08-06T11:43:37;3.25;;;1.25;;
74375;SDS011;62812;55.188;61.302;2023-08-06T11:46:04;4.53;;;1.48;;
74375;SDS011;62812;55.188;61.302;2023-08-06T11:48:31;3.25;;;1.15;;
74375;SDS011;62812;55.188;61.302;2023-08-06T11:50:57;4.70;;;1.17;;
74375;SDS011;62812;55.188;61.302;2023-08-06T11:53:26;2.97;;;1.13;;
74375;SDS011;62812;55.188;61.302;2023-08-06T11:55:55;4.47;;;1.42;;
74375;SDS011;62812;55.188;61.302;2023-08-06T11:58:27;3.38;;;1.35;;
74375;SDS011;62812;55.188;61.302;2023-08-06T12:00:59;4.95;;;1.75;;
74375;SDS011;62812;55.188;61.302;2023-08-06T12:03:26;4.10;;;1.40;;
74375;SDS011;62812;55.188;61.302;2023-08-06T12:05:58;3.17;;;1.30;;
74375;SDS011;62812;55.188;61.302;2023-08-06T12:08:26;5.28;;;1.42;;
74375;SDS011;62812;55.188;61.302;2023-08-06T12:10:54;3.35;;;1.50;;
74375;SDS011;62812;55.188;61.302;2023-08-06T12:13:21;4.18;;;1.63;;
74375;SDS011;62812;55.188;61.302;2023-08-06T12:15:50;4.07;;;1.60;;
74375;SDS011;62812;55.188;61.302;2023-08-06T12:18:20;3.33;;;1.45;;
74375;SDS011;62812;55.188;61.302;2023-08-06T12:23:15;3.38;;;1.52;;
74375;SDS011;62812;55.188;61.302;2023-08-06T12:25:45;4.55;;;1.60;;
74375;SDS011;62812;55.188;61.302;2023-08-06T12:28:16;3.40;;;1.38;;
74375;SDS011;62812;55.188;61.302;2023-08-06T12:30:43;3.97;;;1.75;;
74375;SDS011;62812;55.188;61.302;2023-08-06T12:33:11;5.05;;;1.70;;
74375;SDS011;62812;55.188;61.302;2023-08-06T12:35:44;4.88;;;1.70;;
74375;SDS011;62812;55.188;61.302;2023-08-06T12:38:12;3.50;;;1.70;;
74375;SDS011;62812;55.188;61.302;2023-08-06T12:40:39;5.13;;;2.45;;
74375;SDS011;62812;55.188;61.302;2023-08-06T12:43:07;5.20;;;2.50;;
74375;SDS011;62812;55.188;61.302;2023-08-06T12:45:34;4.90;;;2.50;;
74375;SDS011;62812;55.188;61.302;2023-08-06T12:48:02;5.05;;;2.35;;
74375;SDS011;62812;55.188;61.302;2023-08-06T12:50:29;4.88;;;2.35;;
74375;SDS011;62812;55.188;61.302;2023-08-06T12:53:00;4.90;;;2.78;;
74375;SDS011;62812;55.188;61.302;2023-08-06T12:55:26;8.38;;;2.80;;
74375;SDS011;62812;55.188;61.302;2023-08-06T12:57:53;5.43;;;2.72;;
74375;SDS011;62812;55.188;61.302;2023-08-06T13:00:20;6.45;;;3.22;;
74375;SDS011;62812;55.188;61.302;2023-08-06T13:02:47;7.38;;;3.30;;
74375;SDS011;62812;55.188;61.302;2023-08-06T13:05:15;8.50;;;3.45;;
74375;SDS011;62812;55.188;61.302;2023-08-06T13:07:42;8.13;;;3.40;;
74375;SDS011;62812;55.188;61.302;2023-08-06T13:10:16;7.15;;;3.28;;
74375;SDS011;62812;55.188;61.302;2023-08-06T13:12:43;7.38;;;3.25;;
74375;SDS011;62812;55.188;61.302;2023-08-06T13:15:10;6.15;;;3.40;;
74375;SDS011;62812;55.188;61.302;2023-08-06T13:17:36;5.35;;;3.28;;
74375;SDS011;62812;55.188;61.302;2023-08-06T13:20:03;8.15;;;3.70;;
74375;SDS011;62812;55.188;61.302;2023-08-06T13:22:32;9.07;;;3.47;;
74375;SDS011;62812;55.188;61.302;2023-08-06T13:25:00;8.27;;;3.92;;
74375;SDS011;62812;55.188;61.302;2023-08-06T13:27:29;5.72;;;3.30;;
74375;SDS011;62812;55.188;61.302;2023-08-06T13:29:56;6.72;;;4.03;;
74375;SDS011;62812;55.188;61.302;2023-08-06T13:32:22;6.28;;;3.30;;
74375;SDS011;62812;55.188;61.302;2023-08-06T13:34:50;7.47;;;3.97;;
74375;SDS011;62812;55.188;61.302;2023-08-06T13:37:17;6.85;;;3.53;;
74375;SDS011;62812;55.188;61.302;2023-08-06T13:39:44;6.32;;;3.63;;
74375;SDS011;62812;55.188;61.302;2023-08-06T13:42:12;7.70;;;3.88;;
74375;SDS011;62812;55.188;61.302;2023-08-06T13:44:40;7.93;;;4.13;;
74375;SDS011;62812;55.188;61.302;2023-08-06T13:47:07;6.88;;;3.55;;
74375;SDS011;62812;55.188;61.302;2023-08-06T13:49:34;7.32;;;3.33;;
74375;SDS011;62812;55.188;61.302;2023-08-06T13:52:28;6.38;;;3.53;;
74375;SDS011;62812;55.188;61.302;2023-08-06T13:54:55;6.72;;;4.03;;
74375;SDS011;62812;55.188;61.302;2023-08-06T13:57:23;7.90;;;3.70;;
74375;SDS011;62812;55.188;61.302;2023-08-06T13:59:51;6.60;;;3.47;;
74375;SDS011;62812;55.188;61.302;2023-08-06T14:02:22;6.50;;;3.83;;
74375;SDS011;62812;55.188;61.302;2023-08-06T14:04:49;9.23;;;4.90;;
74375;SDS011;62812;55.188;61.302;2023-08-06T14:07:16;8.05;;;4.00;;
74375;SDS011;62812;55.188;61.302;2023-08-06T14:09:43;8.38;;;4.38;;
74375;SDS011;62812;55.188;61.302;2023-08-06T14:12:13;8.60;;;4.60;;
74375;SDS011;62812;55.188;61.302;2023-08-06T14:14:46;7.30;;;4.65;;
74375;SDS011;62812;55.188;61.302;2023-08-06T14:17:14;7.82;;;4.72;;
74375;SDS011;62812;55.188;61.302;2023-08-06T14:19:49;7.97;;;4.43;;
74375;SDS011;62812;55.188;61.302;2023-08-06T14:22:15;8.00;;;4.57;;
74375;SDS011;62812;55.188;61.302;2023-08-06T14:24:42;9.80;;;4.68;;
74375;SDS011;62812;55.188;61.302;2023-08-06T14:27:12;8.45;;;4.80;;
74375;SDS011;62812;55.188;61.302;2023-08-06T14:29:39;9.77;;;5.13;;
74375;SDS011;62812;55.188;61.302;2023-08-06T14:32:07;10.18;;;4.63;;
74375;SDS011;62812;55.188;61.302;2023-08-06T14:34:36;8.88;;;4.80;;
74375;SDS011;62812;55.188;61.302;2023-08-06T14:37:11;9.45;;;4.93;;
74375;SDS011;62812;55.188;61.302;2023-08-06T14:39:38;9.57;;;5.28;;
74375;SDS011;62812;55.188;61.302;2023-08-06T14:42:06;9.27;;;5.40;;
74375;SDS011;62812;55.188;61.302;2023-08-06T14:44:35;9.95;;;5.68;;
74375;SDS011;62812;55.188;61.302;2023-08-06T14:47:04;9.15;;;5.55;;
74375;SDS011;62812;55.188;61.302;2023-08-06T14:49:32;9.20;;;5.95;;